Terminal Aerodrome Forecast
Issued by NWS Knoxville/Tri Cities, TN

Home | Current Version | Previous Version | Text Only | Print | Product List | Glossary On
Versions: 1 2 3 4 5 6 7 8 9 10 11 12 13 14 15 16 17 18 19 20 21 22 23 24 25
682
FTUS44 KMRX 132333
TAFTYS
TAF
KTYS 132333Z 1400/1424 02005KT P6SM SCT120
     FM140600 04004KT P6SM BKN100
     FM142000 17006KT P6SM OVC060=

USA.gov is the U.S. government's official web portal to all federal, state and local government web resources and services.